createdAt,value
2019-04-11T00:00:36.077Z,72.22
2019-04-11T00:01:12.114Z,72.32
2019-04-11T00:01:48.671Z,72.38
2019-04-11T00:02:20.632Z,72.38
2019-04-11T00:02:53.157Z,72.37
2019-04-11T00:03:25.123Z,72.36
2019-04-11T00:03:56.404Z,72.42
2019-04-11T00:04:28.237Z,72.35
2019-04-11T00:04:59.580Z,72.17
2019-04-11T00:05:30.875Z,72.24
2019-04-11T00:06:03.290Z,72.41
2019-04-11T00:06:35.710Z,72.45
2019-04-11T00:07:07.861Z,72.48
2019-04-11T00:07:39.211Z,72.63
2019-04-11T00:08:10.451Z,72.78
2019-04-11T00:08:41.965Z,72.76
2019-04-11T00:09:15.148Z,72.64
2019-04-11T00:09:47.822Z,72.68
2019-04-11T00:10:20.701Z,72.70
2019-04-11T00:10:51.974Z,72.60
2019-04-11T00:11:23.919Z,72.55
2019-04-11T00:11:55.157Z,72.57
2019-04-11T00:12:27.398Z,72.59
2019-04-11T00:12:59.058Z,72.69
2019-04-11T00:13:33.403Z,72.66
2019-04-11T00:14:03.440Z,72.68
2019-04-11T00:14:35.794Z,72.61
2019-04-11T00:15:07.059Z,72.65
2019-04-11T00:15:38.265Z,72.58
2019-04-11T00:16:09.424Z,72.59
2019-04-11T00:16:41.517Z,72.63
2019-04-11T00:17:13.836Z,72.65
2019-04-11T00:17:45.993Z,72.67
2019-04-11T00:18:17.214Z,72.64
2019-04-11T00:18:49.240Z,72.67
2019-04-11T00:19:21.154Z,72.63
2019-04-11T00:19:52.379Z,72.67
2019-04-11T00:20:24.229Z,72.65
2019-04-11T00:20:56.652Z,72.55
2019-04-11T00:21:28.845Z,72.70
2019-04-11T00:22:01.488Z,72.64
2019-04-11T00:22:33.308Z,72.79
2019-04-11T00:23:04.518Z,73.01
2019-04-11T00:23:36.491Z,73.05
2019-04-11T00:24:07.830Z,73.09
2019-04-11T00:24:39.111Z,73.21
2019-04-11T00:25:11.428Z,73.35
2019-04-11T00:25:42.725Z,73.37
2019-04-11T00:26:13.927Z,73.43
2019-04-11T00:26:45.184Z,73.45
2019-04-11T00:27:17.123Z,73.36
2019-04-11T00:27:48.928Z,73.39
2019-04-11T00:28:21.494Z,73.41
2019-04-11T00:28:52.839Z,73.40
2019-04-11T00:29:26.042Z,73.53
2019-04-11T00:29:57.317Z,73.44
2019-04-11T00:30:28.535Z,73.54
2019-04-11T00:31:00.751Z,73.48
2019-04-11T00:31:32.697Z,73.41
2019-04-11T00:32:06.510Z,73.49
2019-04-11T00:32:37.987Z,73.45
2019-04-11T00:33:09.813Z,73.47
2019-04-11T00:33:41.127Z,73.40
2019-04-11T00:34:13.384Z,73.36
2019-04-11T00:34:44.890Z,73.49
2019-04-11T00:35:16.157Z,73.46
2019-04-11T00:35:48.058Z,73.47
2019-04-11T00:36:20.038Z,73.42
2019-04-11T00:36:51.295Z,73.52
2019-04-11T00:37:23.205Z,73.48
2019-04-11T00:37:54.478Z,73.54
2019-04-11T00:38:25.753Z,73.60
2019-04-11T00:38:57.323Z,73.59
2019-04-11T00:39:28.506Z,73.60
2019-04-11T00:39:59.763Z,73.56
2019-04-11T00:40:31.183Z,73.51
2019-04-11T00:41:03.749Z,73.52
2019-04-11T00:41:35.044Z,73.51
2019-04-11T00:42:06.290Z,73.64
2019-04-11T00:42:37.462Z,73.71
2019-04-11T00:43:09.418Z,73.83
2019-04-11T00:43:43.468Z,73.75
2019-04-11T00:44:14.665Z,73.68
2019-04-11T00:44:48.009Z,73.76
2019-04-11T00:45:19.290Z,73.83
2019-04-11T00:45:50.486Z,73.86
2019-04-11T00:46:22.444Z,73.89
2019-04-11T00:46:53.759Z,73.89
2019-04-11T00:47:24.947Z,73.72
2019-04-11T00:47:56.131Z,73.96
2019-04-11T00:48:28.003Z,73.89
2019-04-11T00:48:59.828Z,73.82
2019-04-11T00:49:31.063Z,73.93
2019-04-11T00:50:05.543Z,73.82
2019-04-11T00:50:37.248Z,73.76
2019-04-11T00:51:09.720Z,73.75
2019-04-11T00:51:41.007Z,73.93
2019-04-11T00:52:12.207Z,73.88
2019-04-11T00:52:43.435Z,73.89
2019-04-11T00:53:16.005Z,73.93
2019-04-11T00:53:47.237Z,73.97
2019-04-11T00:54:18.539Z,73.90
2019-04-11T00:54:49.733Z,73.93
2019-04-11T00:55:21.738Z,74.01
2019-04-11T00:55:53.619Z,74.00
2019-04-11T00:56:26.175Z,74.01
2019-04-11T00:56:57.511Z,74.02
2019-04-11T00:57:28.760Z,74.01
2019-04-11T00:58:01.289Z,74.06
2019-04-11T00:58:33.856Z,74.11
2019-04-11T00:59:05.853Z,74.09
2019-04-11T00:59:38.385Z,74.07
2019-04-11T01:00:11.020Z,74.09
2019-04-11T01:00:42.987Z,74.11
2019-04-11T01:01:14.189Z,74.11
2019-04-11T01:01:45.426Z,74.15
2019-04-11T01:02:17.681Z,74.08
2019-04-11T01:02:49.603Z,74.11
2019-04-11T01:03:22.075Z,74.21
2019-04-11T01:03:53.679Z,74.15
2019-04-11T01:04:25.537Z,74.22
2019-04-11T01:04:57.113Z,74.28
2019-04-11T01:05:29.709Z,74.30
2019-04-11T01:06:01.581Z,74.35
2019-04-11T01:06:32.830Z,74.39
2019-04-11T01:07:04.752Z,74.28
2019-04-11T01:07:36.154Z,74.32
2019-04-11T01:08:07.382Z,74.37
2019-04-11T01:08:38.538Z,74.39
2019-04-11T01:09:10.992Z,74.41
2019-04-11T01:09:42.347Z,74.42
2019-04-11T01:10:13.990Z,74.38
2019-04-11T01:10:45.626Z,74.51
2019-04-11T01:11:16.935Z,74.50
2019-04-11T01:11:48.081Z,74.45
2019-04-11T01:12:19.291Z,74.51
2019-04-11T01:12:51.305Z,74.50
2019-04-11T01:13:23.750Z,74.74
2019-04-11T01:13:55.748Z,74.70
2019-04-11T01:14:27.913Z,74.81
2019-04-11T01:14:59.465Z,74.80
2019-04-11T01:15:31.365Z,74.80
2019-04-11T01:16:05.047Z,74.73
2019-04-11T01:16:45.102Z,74.73
2019-04-11T01:17:16.989Z,74.78
2019-04-11T01:17:48.282Z,74.70
2019-04-11T01:18:20.701Z,74.76
2019-04-11T01:18:52.086Z,74.80
2019-04-11T01:19:24.674Z,74.83
2019-04-11T01:19:57.264Z,74.91
2019-04-11T01:20:29.337Z,74.92
2019-04-11T01:21:02.052Z,75.01
2019-04-11T01:21:33.455Z,75.04
2019-04-11T01:22:05.649Z,75.09
2019-04-11T01:22:38.292Z,75.17
2019-04-11T01:23:10.962Z,75.22
2019-04-11T01:23:42.924Z,75.24
2019-04-11T01:24:15.531Z,75.25
2019-04-11T01:24:48.102Z,75.24
2019-04-11T01:25:20.128Z,75.13
2019-04-11T01:25:51.454Z,75.18
2019-04-11T01:26:23.316Z,75.13
2019-04-11T01:26:54.559Z,75.12
2019-04-11T01:27:25.780Z,75.10
2019-04-11T01:27:56.936Z,75.09
2019-04-11T01:28:28.903Z,75.20
2019-04-11T01:29:00.913Z,75.27
2019-04-11T01:29:32.217Z,75.19
2019-04-11T01:30:06.125Z,75.21
2019-04-11T01:30:39.406Z,75.27
2019-04-11T01:31:13.518Z,75.27
2019-04-11T01:31:46.759Z,75.28
2019-04-11T01:32:18.069Z,75.15
2019-04-11T01:32:49.333Z,75.34
2019-04-11T01:33:20.691Z,75.26
2019-04-11T01:33:52.299Z,75.29
2019-04-11T01:34:24.461Z,75.31
2019-04-11T01:34:55.765Z,75.31
2019-04-11T01:35:26.919Z,75.34
2019-04-11T01:35:58.165Z,75.35
2019-04-11T01:36:29.349Z,75.32
2019-04-11T01:37:01.618Z,75.29
2019-04-11T01:37:33.492Z,75.29
2019-04-11T01:38:04.800Z,75.37
2019-04-11T01:38:38.714Z,75.49
2019-04-11T01:39:21.038Z,75.51
2019-04-11T01:39:57.306Z,75.47
2019-04-11T01:40:29.781Z,75.49
2019-04-11T01:41:02.350Z,75.39
2019-04-11T01:41:34.333Z,75.36
2019-04-11T01:42:05.610Z,75.35
2019-04-11T01:42:37.600Z,75.35
2019-04-11T01:43:09.166Z,75.37
2019-04-11T01:43:52.128Z,75.34
2019-04-11T01:44:14.499Z,75.29
2019-04-11T01:44:46.045Z,75.23
2019-04-11T01:45:21.135Z,75.27
2019-04-11T01:45:52.516Z,75.26
2019-04-11T01:46:24.398Z,75.28
2019-04-11T01:46:56.274Z,75.52
2019-04-11T01:47:29.363Z,75.42
2019-04-11T01:48:01.556Z,75.25
2019-04-11T01:48:43.884Z,75.23
2019-04-11T01:49:19.804Z,75.16
2019-04-11T01:49:51.043Z,75.09
2019-04-11T01:50:25.151Z,74.93
2019-04-11T01:50:57.075Z,75.03
2019-04-11T01:51:28.359Z,75.00
2019-04-11T01:52:00.167Z,75.05
2019-04-11T01:52:31.485Z,75.14
2019-04-11T01:53:02.713Z,75.14
2019-04-11T01:53:35.145Z,75.20
2019-04-11T01:54:07.700Z,75.24
2019-04-11T01:54:39.587Z,75.26
2019-04-11T01:55:10.821Z,75.34
2019-04-11T01:55:42.907Z,75.42
2019-04-11T01:56:14.842Z,75.41
2019-04-11T01:56:46.106Z,75.30
2019-04-11T01:57:17.990Z,75.34
2019-04-11T01:57:49.889Z,75.31
2019-04-11T01:58:21.163Z,75.43
2019-04-11T01:58:53.089Z,75.50
2019-04-11T01:59:24.444Z,75.29
2019-04-11T01:59:55.698Z,75.34
2019-04-11T02:00:34.690Z,75.38
2019-04-11T02:01:15.326Z,75.33
2019-04-11T02:01:49.364Z,75.29
2019-04-11T02:02:21.222Z,75.33
2019-04-11T02:02:57.068Z,75.37
2019-04-11T02:03:47.614Z,75.45
2019-04-11T02:04:19.475Z,75.49
2019-04-11T02:04:54.371Z,75.58
2019-04-11T02:05:27.570Z,75.56
2019-04-11T02:05:59.163Z,75.65
2019-04-11T02:06:30.566Z,75.79
2019-04-11T02:07:02.508Z,75.83
2019-04-11T02:07:34.348Z,75.87
2019-04-11T02:08:05.618Z,75.68
2019-04-11T02:08:37.582Z,75.57
2019-04-11T02:09:11.626Z,75.53
2019-04-11T02:09:44.138Z,75.41
2019-04-11T02:10:15.519Z,75.48
2019-04-11T02:10:46.769Z,75.47
2019-04-11T02:11:18.238Z,75.28
2019-04-11T02:11:49.976Z,75.37
2019-04-11T02:12:22.411Z,75.34
2019-04-11T02:12:55.290Z,75.29
2019-04-11T02:13:26.482Z,75.23
2019-04-11T02:14:09.829Z,75.02
2019-04-11T02:14:31.257Z,75.05
2019-04-11T02:15:06.111Z,75.02
2019-04-11T02:15:37.345Z,75.02
2019-04-11T02:16:08.998Z,75.12
2019-04-11T02:16:41.224Z,75.04
2019-04-11T02:17:12.583Z,75.05
2019-04-11T02:17:43.761Z,74.74
2019-04-11T02:18:15.082Z,74.85
2019-04-11T02:18:46.314Z,74.80
2019-04-11T02:19:18.295Z,74.80
2019-04-11T02:19:50.280Z,74.79
2019-04-11T02:20:21.596Z,74.75
2019-04-11T02:20:54.217Z,74.65
2019-04-11T02:21:25.538Z,74.65
2019-04-11T02:21:58.589Z,74.61
2019-04-11T02:22:38.359Z,74.58
2019-04-11T02:23:11.450Z,74.56
2019-04-11T02:23:47.636Z,74.45
2019-04-11T02:24:30.070Z,74.35
2019-04-11T02:25:15.033Z,74.25
2019-04-11T02:25:49.025Z,74.33
2019-04-11T02:26:31.476Z,74.31
2019-04-11T02:27:08.497Z,74.34
2019-04-11T02:27:40.803Z,74.25
2019-04-11T02:28:14.745Z,74.25
2019-04-11T02:28:46.709Z,74.25
2019-04-11T02:29:17.991Z,74.23
2019-04-11T02:29:49.177Z,74.27
2019-04-11T02:30:22.671Z,74.36
2019-04-11T02:30:56.258Z,74.35
2019-04-11T02:31:28.258Z,74.47
2019-04-11T02:32:04.766Z,74.37
2019-04-11T02:32:34.417Z,74.43
2019-04-11T02:33:07.243Z,74.43
2019-04-11T02:33:39.154Z,74.39
2019-04-11T02:34:11.392Z,74.55
2019-04-11T02:34:43.911Z,74.59
2019-04-11T02:35:15.542Z,74.68
2019-04-11T02:35:49.348Z,74.71
2019-04-11T02:36:21.769Z,74.66
2019-04-11T02:36:53.768Z,74.68
2019-04-11T02:37:26.437Z,74.81
2019-04-11T02:37:59.255Z,74.71
2019-04-11T02:38:32.443Z,74.67
2019-04-11T02:39:12.190Z,74.63
2019-04-11T02:39:40.929Z,74.53
2019-04-11T02:40:13.518Z,74.64
2019-04-11T02:40:45.506Z,74.67
2019-04-11T02:41:18.927Z,74.76
2019-04-11T02:41:50.787Z,74.71
2019-04-11T02:42:23.377Z,74.68
2019-04-11T02:42:54.947Z,74.63
2019-04-11T02:43:26.197Z,74.66
2019-04-11T02:43:57.987Z,74.65
2019-04-11T02:44:49.593Z,74.73
2019-04-11T02:45:19.781Z,74.79
2019-04-11T02:45:50.892Z,74.73
2019-04-11T02:46:22.987Z,74.61
2019-04-11T02:46:54.199Z,74.65
2019-04-11T02:47:24.578Z,74.55
2019-04-11T02:47:55.353Z,74.51
2019-04-11T02:48:26.735Z,74.43
2019-04-11T02:48:59.388Z,74.36
2019-04-11T02:49:32.916Z,74.37
2019-04-11T02:50:05.807Z,74.43
2019-04-11T02:50:38.868Z,74.48
2019-04-11T02:51:12.262Z,74.52
2019-04-11T02:51:44.960Z,74.51
2019-04-11T02:52:17.581Z,74.56
2019-04-11T02:52:49.833Z,74.53
2019-04-11T02:53:23.603Z,74.64
2019-04-11T02:53:56.745Z,74.60
2019-04-11T02:54:28.341Z,74.76
2019-04-11T02:55:00.796Z,74.78
2019-04-11T02:55:33.494Z,74.80
2019-04-11T02:56:06.255Z,74.87
2019-04-11T02:56:37.924Z,74.83
2019-04-11T02:57:09.975Z,74.87
2019-04-11T02:57:42.691Z,74.81
2019-04-11T02:58:14.580Z,74.83
2019-04-11T02:58:46.444Z,74.86
2019-04-11T02:59:19.602Z,74.90
2019-04-11T02:59:51.233Z,75.04
2019-04-11T03:00:24.273Z,75.03
2019-04-11T03:00:58.938Z,74.95
2019-04-11T03:01:28.715Z,75.04
2019-04-11T03:02:00.489Z,75.14
2019-04-11T03:02:32.781Z,75.12
2019-04-11T03:03:05.666Z,75.15
2019-04-11T03:03:39.060Z,75.20
2019-04-11T03:04:10.621Z,75.19
2019-04-11T03:04:43.716Z,75.33
2019-04-11T03:05:16.264Z,75.37
2019-04-11T03:05:47.623Z,75.45
2019-04-11T03:06:19.384Z,75.53
2019-04-11T03:06:51.989Z,75.52
2019-04-11T03:07:24.761Z,75.51
2019-04-11T03:07:58.265Z,75.47
2019-04-11T03:08:31.859Z,75.45
2019-04-11T03:09:06.823Z,75.41
2019-04-11T03:09:39.332Z,75.35
2019-04-11T03:10:12.309Z,75.44
2019-04-11T03:10:45.457Z,75.44
2019-04-11T03:11:18.967Z,75.47
2019-04-11T03:11:51.502Z,75.47
2019-04-11T03:12:24.005Z,75.55
2019-04-11T03:12:56.747Z,75.53
2019-04-11T03:13:29.545Z,75.53
2019-04-11T03:14:03.275Z,75.56
2019-04-11T03:14:54.417Z,75.59
2019-04-11T03:15:25.649Z,75.62
2019-04-11T03:15:57.319Z,75.75
2019-04-11T03:16:29.808Z,75.57
2019-04-11T03:16:57.300Z,75.60
2019-04-11T03:17:26.421Z,75.62
2019-04-11T03:17:57.635Z,75.73
2019-04-11T03:18:49.436Z,75.77
2019-04-11T03:19:17.994Z,75.77
2019-04-11T03:19:46.842Z,75.90
2019-04-11T03:20:18.649Z,75.91
2019-04-11T03:20:47.335Z,75.99
2019-04-11T03:21:16.386Z,75.91
2019-04-11T03:21:46.922Z,76.05
2019-04-11T03:22:18.317Z,76.11
2019-04-11T03:22:56.983Z,76.02
2019-04-11T03:23:23.527Z,76.13
2019-04-11T03:23:56.227Z,76.02
2019-04-11T03:24:30.457Z,76.01
2019-04-11T03:25:02.926Z,76.06
2019-04-11T03:25:34.055Z,76.11
2019-04-11T03:26:07.318Z,76.16
2019-04-11T03:26:38.463Z,76.09
2019-04-11T03:27:11.432Z,76.21
2019-04-11T03:27:43.291Z,76.27
2019-04-11T03:28:21.108Z,76.22
2019-04-11T03:29:04.161Z,76.18
2019-04-11T03:29:37.751Z,76.20
2019-04-11T03:30:14.509Z,76.12
2019-04-11T03:31:03.866Z,76.15
2019-04-11T03:31:57.382Z,76.18
2019-04-11T03:32:34.452Z,76.26
2019-04-11T03:33:25.473Z,76.21
2019-04-11T03:34:51.886Z,76.14
2019-04-11T03:35:20.855Z,76.18
2019-04-11T03:35:59.676Z,76.14
2019-04-11T03:37:19.239Z,76.19
2019-04-11T03:37:47.777Z,76.21
2019-04-11T03:38:18.949Z,76.24
2019-04-11T03:38:48.227Z,76.22
2019-04-11T03:39:21.822Z,76.19
2019-04-11T03:39:56.974Z,76.25
2019-04-11T03:40:27.779Z,76.32
2019-04-11T03:40:57.711Z,76.27
2019-04-11T03:41:26.921Z,76.22
2019-04-11T03:42:07.433Z,76.26
2019-04-11T03:42:38.298Z,76.14
2019-04-11T03:43:08.895Z,76.14
2019-04-11T03:43:39.815Z,76.24
2019-04-11T03:44:13.482Z,76.19
2019-04-11T03:44:41.442Z,76.00
2019-04-11T03:45:32.869Z,76.00
2019-04-11T03:45:58.964Z,76.05
2019-04-11T03:46:32.627Z,76.02
2019-04-11T03:47:06.405Z,76.09
2019-04-11T03:47:35.980Z,75.99
2019-04-11T03:48:10.847Z,75.96
2019-04-11T03:48:40.779Z,75.96
2019-04-11T03:49:12.712Z,75.98
2019-04-11T03:49:43.244Z,75.84
2019-04-11T03:50:12.678Z,75.85
2019-04-11T03:50:42.259Z,75.87
2019-04-11T03:51:14.849Z,75.72
2019-04-11T03:51:48.024Z,75.76
2019-04-11T03:52:19.891Z,75.74
2019-04-11T03:52:51.941Z,75.85
2019-04-11T03:53:29.100Z,75.76
2019-04-11T03:53:59.183Z,75.90
2019-04-11T03:54:31.870Z,76.07
2019-04-11T03:55:06.768Z,76.08
2019-04-11T03:55:38.952Z,75.92
2019-04-11T03:56:12.118Z,75.95
2019-04-11T03:56:45.569Z,75.86
2019-04-11T03:57:17.475Z,75.93
2019-04-11T03:57:49.273Z,75.91
2019-04-11T03:58:23.725Z,75.85
2019-04-11T03:58:55.477Z,75.91
2019-04-11T03:59:28.879Z,75.84
2019-04-11T04:00:01.031Z,75.91
2019-04-11T04:00:37.291Z,75.97
2019-04-11T04:01:10.945Z,75.90
2019-04-11T04:01:42.435Z,75.83
2019-04-11T04:02:15.495Z,75.81
2019-04-11T04:02:48.846Z,75.77
2019-04-11T04:03:22.340Z,75.86
2019-04-11T04:03:55.418Z,75.90
2019-04-11T04:04:28.441Z,75.91
2019-04-11T04:05:01.338Z,75.90
2019-04-11T04:05:36.279Z,76.03
2019-04-11T04:06:06.940Z,76.08
2019-04-11T04:06:41.333Z,76.21
2019-04-11T04:07:14.911Z,76.23
2019-04-11T04:07:46.502Z,76.14
2019-04-11T04:08:18.111Z,76.16
2019-04-11T04:08:50.846Z,76.13
2019-04-11T04:09:24.059Z,76.17
2019-04-11T04:09:55.685Z,76.33
2019-04-11T04:10:27.892Z,76.44
2019-04-11T04:11:04.076Z,76.57
2019-04-11T04:11:38.392Z,76.50
2019-04-11T04:12:11.456Z,76.69
2019-04-11T04:12:43.419Z,76.80
2019-04-11T04:13:18.911Z,76.72
2019-04-11T04:13:59.299Z,76.87
2019-04-11T04:14:39.235Z,76.81
2019-04-11T04:15:23.783Z,76.95
2019-04-11T04:15:59.752Z,76.94
2019-04-11T04:16:45.223Z,76.90
2019-04-11T04:17:24.052Z,76.97
2019-04-11T04:17:59.746Z,76.91
2019-04-11T04:18:37.956Z,77.01
2019-04-11T04:19:30.191Z,76.98
2019-04-11T04:20:06.731Z,76.97
2019-04-11T04:20:39.490Z,76.92
2019-04-11T04:21:15.431Z,76.92
2019-04-11T04:21:57.695Z,76.81
2019-04-11T04:22:31.523Z,76.78
2019-04-11T04:23:05.816Z,76.81
2019-04-11T04:23:40.946Z,76.75
2019-04-11T04:24:34.174Z,76.73
2019-04-11T04:25:04.275Z,76.90
2019-04-11T04:25:36.769Z,76.84
2019-04-11T04:26:10.603Z,76.77
2019-04-11T04:26:43.048Z,76.74
2019-04-11T04:27:15.398Z,76.67
2019-04-11T04:27:46.955Z,76.78
2019-04-11T04:28:19.158Z,76.75
2019-04-11T04:28:51.321Z,76.79
2019-04-11T04:29:25.119Z,76.72
2019-04-11T04:29:58.449Z,76.72
2019-04-11T04:30:29.886Z,76.75
2019-04-11T04:31:02.095Z,76.75
2019-04-11T04:31:35.055Z,76.79
2019-04-11T04:32:08.192Z,76.79
2019-04-11T04:32:40.543Z,76.78
2019-04-11T04:33:14.444Z,76.79
2019-04-11T04:33:48.061Z,76.84
2019-04-11T04:34:19.684Z,76.73
2019-04-11T04:34:53.116Z,76.69
2019-04-11T04:35:26.141Z,76.56
2019-04-11T04:35:58.141Z,76.65
2019-04-11T04:36:32.805Z,76.56
2019-04-11T04:37:05.892Z,76.55
2019-04-11T04:37:38.773Z,76.52
2019-04-11T04:38:11.402Z,76.50
2019-04-11T04:38:44.553Z,76.51
2019-04-11T04:39:17.368Z,76.60
2019-04-11T04:39:55.305Z,76.57
2019-04-11T04:40:42.501Z,76.50
2019-04-11T04:41:09.932Z,76.44
2019-04-11T04:41:39.263Z,76.55
2019-04-11T04:42:11.409Z,76.50
2019-04-11T04:42:44.467Z,76.44
2019-04-11T04:43:11.875Z,76.36
2019-04-11T04:43:44.361Z,76.40
2019-04-11T04:44:16.981Z,76.53
2019-04-11T04:44:50.811Z,76.49
2019-04-11T04:45:23.896Z,76.46
2019-04-11T04:46:12.163Z,76.50
2019-04-11T04:46:45.595Z,76.58
2019-04-11T04:47:13.605Z,76.65
2019-04-11T04:47:42.214Z,76.62
2019-04-11T04:48:11.813Z,76.67
2019-04-11T04:48:43.334Z,76.63
2019-04-11T04:49:15.410Z,76.62
2019-04-11T04:49:48.221Z,76.59
2019-04-11T04:50:20.195Z,76.63
2019-04-11T04:50:54.399Z,76.74
2019-04-11T04:51:26.631Z,76.77
2019-04-11T04:51:59.429Z,76.83
2019-04-11T04:52:32.651Z,76.85
2019-04-11T04:53:05.142Z,76.88
2019-04-11T04:53:36.565Z,76.91
2019-04-11T04:54:08.096Z,76.82
2019-04-11T04:54:41.043Z,76.69
2019-04-11T04:55:12.910Z,76.63
2019-04-11T04:55:45.726Z,76.51
2019-04-11T04:56:23.855Z,76.44
2019-04-11T04:56:52.265Z,76.50
2019-04-11T04:57:24.418Z,76.55
2019-04-11T04:57:57.581Z,76.54
2019-04-11T04:58:29.369Z,76.53
2019-04-11T04:59:02.634Z,76.51
2019-04-11T04:59:33.999Z,76.46
2019-04-11T05:00:07.058Z,76.51
2019-04-11T05:00:39.705Z,76.45
2019-04-11T05:01:12.688Z,76.45
2019-04-11T05:01:45.734Z,76.39
2019-04-11T05:02:17.769Z,76.47
2019-04-11T05:02:50.343Z,76.56
2019-04-11T05:03:22.229Z,76.58
2019-04-11T05:03:54.085Z,76.54
2019-04-11T05:04:27.529Z,76.53
2019-04-11T05:04:59.348Z,76.60
2019-04-11T05:05:33.706Z,76.49
2019-04-11T05:06:05.362Z,76.53
2019-04-11T05:06:37.312Z,76.63
2019-04-11T05:07:11.623Z,76.71
2019-04-11T05:07:46.241Z,76.73
2019-04-11T05:08:16.586Z,76.78
2019-04-11T05:08:49.296Z,76.81
2019-04-11T05:09:21.373Z,76.85
2019-04-11T05:09:54.378Z,76.83
2019-04-11T05:10:26.388Z,76.93
2019-04-11T05:10:57.934Z,77.52
2019-04-11T05:11:30.516Z,77.19
2019-04-11T05:12:03.451Z,77.10
2019-04-11T05:12:36.469Z,77.00
2019-04-11T05:13:07.980Z,77.26
2019-04-11T05:13:42.077Z,77.33
2019-04-11T05:14:14.617Z,76.79
2019-04-11T05:14:47.585Z,76.84
2019-04-11T05:15:20.562Z,76.46
2019-04-11T05:16:04.325Z,76.28
2019-04-11T05:16:25.170Z,76.35
2019-04-11T05:16:56.324Z,76.18
2019-04-11T05:17:28.789Z,76.04
2019-04-11T05:18:01.841Z,75.92
2019-04-11T05:18:34.250Z,76.13
2019-04-11T05:19:06.520Z,76.04
2019-04-11T05:19:38.390Z,76.12
2019-04-11T05:20:09.562Z,76.04
2019-04-11T05:20:40.783Z,75.88
2019-04-11T05:21:12.866Z,75.92
2019-04-11T05:21:44.130Z,75.92
2019-04-11T05:22:15.329Z,75.86
2019-04-11T05:22:47.496Z,75.81
2019-04-11T05:23:18.654Z,75.77
2019-04-11T05:23:50.062Z,75.84
2019-04-11T05:24:21.346Z,75.79
2019-04-11T05:24:54.209Z,75.86
2019-04-11T05:25:26.540Z,75.87
2019-04-11T05:25:57.795Z,75.79
2019-04-11T05:26:29.011Z,75.82
2019-04-11T05:27:00.165Z,75.80
2019-04-11T05:27:31.509Z,75.87
2019-04-11T05:28:02.715Z,75.90
2019-04-11T05:28:35.226Z,75.91
2019-04-11T05:29:06.918Z,75.93
2019-04-11T05:29:38.155Z,75.94
2019-04-11T05:30:09.536Z,75.94
2019-04-11T05:30:41.844Z,75.94
2019-04-11T05:31:14.319Z,76.02
2019-04-11T05:31:45.647Z,76.03
2019-04-11T05:32:16.812Z,76.00
2019-04-11T05:32:49.241Z,76.12
2019-04-11T05:33:21.253Z,76.03
2019-04-11T05:33:53.551Z,76.11
2019-04-11T05:34:25.821Z,76.16
2019-04-11T05:34:57.134Z,76.30
2019-04-11T05:35:28.294Z,76.19
2019-04-11T05:36:00.506Z,76.19
2019-04-11T05:36:32.341Z,76.13
2019-04-11T05:37:03.961Z,76.16
2019-04-11T05:37:36.186Z,76.20
2019-04-11T05:38:08.360Z,76.21
2019-04-11T05:38:39.570Z,76.11
2019-04-11T05:39:10.787Z,75.97
2019-04-11T05:39:42.443Z,75.87
2019-04-11T05:40:14.810Z,75.80
2019-04-11T05:40:46.184Z,75.89
2019-04-11T05:41:20.100Z,75.83
2019-04-11T05:41:51.390Z,75.74
2019-04-11T05:42:25.255Z,75.71
2019-04-11T05:42:55.814Z,75.71
2019-04-11T05:43:31.381Z,75.61
2019-04-11T05:44:03.137Z,75.64
2019-04-11T05:44:37.394Z,75.67
2019-04-11T05:45:11.661Z,75.67
2019-04-11T05:45:40.158Z,75.66
2019-04-11T05:46:28.587Z,75.75
2019-04-11T05:46:53.244Z,75.71
2019-04-11T05:47:18.870Z,75.66
2019-04-11T05:47:53.839Z,75.63
2019-04-11T05:48:43.007Z,75.69
2019-04-11T05:49:21.182Z,75.71
2019-04-11T05:50:06.494Z,75.50
2019-04-11T05:50:36.165Z,75.51
2019-04-11T05:51:07.458Z,75.54
2019-04-11T05:51:41.652Z,75.53
2019-04-11T05:52:12.278Z,75.59
2019-04-11T05:52:44.174Z,75.40
2019-04-11T05:53:15.818Z,75.44
2019-04-11T05:53:49.707Z,75.34
2019-04-11T05:54:20.430Z,75.31
2019-04-11T05:54:54.357Z,75.33
2019-04-11T05:55:27.923Z,75.40
2019-04-11T05:56:04.533Z,75.41
2019-04-11T05:56:35.703Z,75.34
2019-04-11T05:57:07.124Z,75.28
2019-04-11T05:57:41.375Z,75.24
2019-04-11T05:58:15.666Z,75.15
2019-04-11T05:58:47.733Z,75.26
2019-04-11T05:59:24.062Z,75.30
2019-04-11T05:59:56.590Z,75.15
2019-04-11T06:00:30.861Z,74.97
2019-04-11T06:01:05.353Z,75.00
2019-04-11T06:01:42.497Z,74.95
2019-04-11T06:02:19.762Z,74.85
2019-04-11T06:02:53.333Z,74.75
2019-04-11T06:03:25.968Z,74.45
2019-04-11T06:04:02.117Z,74.45
2019-04-11T06:04:36.339Z,74.66
2019-04-11T06:05:15.635Z,74.61
2019-04-11T06:05:52.088Z,74.61
2019-04-11T06:06:25.294Z,74.64
2019-04-11T06:06:59.934Z,74.68
2019-04-11T06:07:33.224Z,74.60
2019-04-11T06:08:06.577Z,74.23
2019-04-11T06:08:38.213Z,74.44
2019-04-11T06:09:13.332Z,74.44
2019-04-11T06:09:46.500Z,74.06
2019-04-11T06:10:22.521Z,74.09
2019-04-11T06:11:06.329Z,74.06
2019-04-11T06:11:57.988Z,74.00
2019-04-11T06:12:41.342Z,73.89
2019-04-11T06:13:18.570Z,73.84
2019-04-11T06:13:50.938Z,73.88
2019-04-11T06:14:25.008Z,73.88
2019-04-11T06:14:58.267Z,73.94
2019-04-11T06:15:36.217Z,73.88
2019-04-11T06:16:08.280Z,73.70
2019-04-11T06:16:46.034Z,73.89
2019-04-11T06:17:15.925Z,73.74
2019-04-11T06:17:50.030Z,73.61
2019-04-11T06:18:44.900Z,73.52
2019-04-11T06:19:22.894Z,73.44
2019-04-11T06:19:57.617Z,73.38
2019-04-11T06:20:43.160Z,73.32
2019-04-11T06:21:26.236Z,72.87
2019-04-11T06:22:00.262Z,72.95
2019-04-11T06:22:31.893Z,72.79
2019-04-11T06:23:08.170Z,72.86
2019-04-11T06:23:45.671Z,72.86
2019-04-11T06:24:36.429Z,72.65
2019-04-11T06:25:23.357Z,72.21
2019-04-11T06:25:58.771Z,72.61
2019-04-11T06:26:35.033Z,72.23
2019-04-11T06:27:11.174Z,72.05
2019-04-11T06:27:47.431Z,72.05
2019-04-11T06:28:20.515Z,71.96
2019-04-11T06:28:55.485Z,72.10
2019-04-11T06:29:37.441Z,72.19
2019-04-11T06:30:13.267Z,72.14
2019-04-11T06:30:46.464Z,72.15
2019-04-11T06:31:33.837Z,71.93
2019-04-11T06:32:23.557Z,71.93
2019-04-11T06:33:02.630Z,71.79
2019-04-11T06:33:36.514Z,71.84
2019-04-11T06:34:09.167Z,71.64
2019-04-11T06:34:42.404Z,71.56
2019-04-11T06:35:19.922Z,71.75
2019-04-11T06:35:56.709Z,70.83
2019-04-11T06:36:48.253Z,70.83
2019-04-11T06:37:19.773Z,70.65
2019-04-11T06:38:02.804Z,70.38
2019-04-11T06:38:36.658Z,70.38
2019-04-11T06:39:09.789Z,70.06
2019-04-11T06:39:40.959Z,70.13
2019-04-11T06:40:20.154Z,70.13
2019-04-11T06:41:06.176Z,69.92
2019-04-11T06:41:43.030Z,69.56
2019-04-11T06:42:31.838Z,69.34
2019-04-11T06:43:07.856Z,69.25
2019-04-11T06:43:47.873Z,68.92
2019-04-11T06:44:21.671Z,69.26
2019-04-11T06:44:58.505Z,69.19
2019-04-11T06:45:40.452Z,69.19
2019-04-11T06:46:21.572Z,69.05
2019-04-11T06:47:00.515Z,69.26
2019-04-11T06:47:38.559Z,68.87
2019-04-11T06:48:29.547Z,68.70
2019-04-11T06:49:06.500Z,68.73
2019-04-11T06:49:56.353Z,68.66
2019-04-11T06:50:31.195Z,68.44
2019-04-11T06:51:04.483Z,68.12
2019-04-11T06:51:40.373Z,68.17
2019-04-11T06:52:13.209Z,68.45
2019-04-11T06:52:45.587Z,68.45
2019-04-11T06:53:18.900Z,68.45
2019-04-11T06:53:52.618Z,68.17
2019-04-11T06:54:23.873Z,68.32
2019-04-11T06:54:59.823Z,68.22
2019-04-11T06:55:36.972Z,68.17
2019-04-11T06:56:17.037Z,67.94
2019-04-11T06:56:50.883Z,67.78
2019-04-11T06:57:25.738Z,67.04
2019-04-11T06:58:07.711Z,66.85
2019-04-11T06:58:40.830Z,67.06
2019-04-11T06:59:14.376Z,66.88
2019-04-11T06:59:48.433Z,66.75
2019-04-11T07:00:21.047Z,66.69
2019-04-11T07:00:54.182Z,66.88
2019-04-11T07:01:28.013Z,66.91
2019-04-11T07:02:08.824Z,67.00
2019-04-11T07:02:36.898Z,66.69
2019-04-11T07:03:17.950Z,66.46
2019-04-11T07:03:53.271Z,66.67
2019-04-11T07:04:29.542Z,66.47
2019-04-11T07:05:02.780Z,66.22
2019-04-11T07:05:38.607Z,66.28
2019-04-11T07:06:13.284Z,66.39
2019-04-11T07:06:46.507Z,66.54
2019-04-11T07:07:18.547Z,66.76
2019-04-11T07:07:51.793Z,66.77
2019-04-11T07:08:25.099Z,67.07
2019-04-11T07:09:14.638Z,67.22
2019-04-11T07:09:50.375Z,67.25
2019-04-11T07:10:24.603Z,66.82
2019-04-11T07:10:58.848Z,66.88
2019-04-11T07:11:48.669Z,66.74
2019-04-11T07:12:24.533Z,66.41
2019-04-11T07:12:59.345Z,66.59
2019-04-11T07:13:35.573Z,66.63
2019-04-11T07:14:08.990Z,66.65